Time;durP1;ratioP1;P1;durP2;ratioP2;P2;SDS_P1;SDS_P2;PMS_P1;PMS_P2;Temp;Humidity;BMP_temperature;BMP_pressure;BME280_temperature;BME280_humidity;BME280_pressure;Samples;Min_cycle;Max_cycle;Signal;HPM_P1;HPM_P2
2023/03/24 00:00:34;;;;;;;3.43;2.40;;;14.00;86.10;;;16.30;60.06;99957.06;5034535;28;20222;-60
2023/03/24 00:03:01;;;;;;;5.27;3.10;;;14.00;86.20;;;16.26;60.18;99954.88;5034285;28;20202;-61
2023/03/24 00:05:29;;;;;;;8.07;3.17;;;14.00;86.40;;;16.23;60.20;99958.00;5033987;28;20229;-60
2023/03/24 00:07:58;;;;;;;5.73;3.37;;;14.00;86.70;;;16.20;60.38;99947.84;5033579;28;20199;-61
2023/03/24 00:10:33;;;;;;;5.50;3.13;;;13.90;86.70;;;16.19;60.71;99948.84;5034572;28;20549;-61
2023/03/24 00:13:01;;;;;;;4.33;3.17;;;13.90;86.90;;;16.13;60.77;99941.81;5034323;28;20221;-61
2023/03/24 00:15:30;;;;;;;7.43;2.80;;;13.90;87.00;;;16.07;60.86;99932.09;5027956;28;20253;-61
2023/03/24 00:17:57;;;;;;;5.20;3.20;;;13.80;87.30;;;16.08;61.07;99933.75;5034453;28;20214;-60
2023/03/24 00:20:25;;;;;;;4.23;3.10;;;13.80;87.30;;;16.05;61.27;99928.88;5034247;28;20210;-61
2023/03/24 00:22:57;;;;;;;4.70;3.47;;;13.80;87.50;;;16.02;61.03;99918.72;5033973;28;20208;-62
2023/03/24 00:25:35;;;;;;;4.80;2.93;;;13.80;87.70;;;15.97;61.74;99913.31;5034061;28;20257;-62
2023/03/24 00:28:04;;;;;;;7.73;2.93;;;13.80;88.00;;;15.97;61.83;99905.34;5034268;28;20189;-62
2023/03/24 00:30:34;;;;;;;5.50;3.00;;;13.70;87.90;;;15.85;61.90;99906.38;5034291;28;20191;-60
2023/03/24 00:33:01;;;;;;;4.97;3.03;;;13.70;88.50;;;15.84;62.04;99897.59;5033967;28;20255;-61
2023/03/24 00:35:28;;;;;;;5.57;3.60;;;13.70;88.50;;;15.83;62.28;99897.84;5033630;28;20310;-62
2023/03/24 00:37:55;;;;;;;8.73;3.60;;;13.60;88.40;;;15.81;62.27;99884.78;5032896;28;20690;-62
2023/03/24 00:40:22;;;;;;;6.13;3.20;;;13.60;88.60;;;15.82;62.20;99883.75;5035050;28;20194;-60
2023/03/24 00:42:49;;;;;;;5.30;3.20;;;13.60;88.80;;;15.81;62.32;99874.16;5033620;28;20191;-61
2023/03/24 00:45:21;;;;;;;5.93;2.90;;;13.60;88.90;;;15.82;62.50;99874.97;5036608;28;20310;-59
2023/03/24 00:47:52;;;;;;;5.87;2.90;;;13.60;89.00;;;15.83;62.29;99866.78;5034404;28;20186;-59
2023/03/24 00:50:25;;;;;;;5.00;2.90;;;13.60;89.10;;;15.84;62.56;99862.28;5016714;28;20194;-60
2023/03/24 00:52:54;;;;;;;5.10;3.47;;;13.50;89.10;;;15.80;62.51;99861.94;5033876;28;20309;-63
2023/03/24 00:55:21;;;;;;;4.43;3.13;;;13.50;89.30;;;15.79;62.71;99849.69;5015787;28;20250;-61
2023/03/24 00:57:49;;;;;;;6.57;3.27;;;13.50;89.40;;;15.75;62.69;99848.56;5033678;28;20225;-61
2023/03/24 01:00:20;;;;;;;3.87;2.83;;;13.50;89.50;;;15.68;62.67;99844.38;5033584;28;20537;-61
2023/03/24 01:02:53;;;;;;;5.50;3.37;;;13.50;89.50;;;15.67;63.17;99835.63;5033849;28;20191;-60
2023/03/24 01:05:22;;;;;;;5.40;2.90;;;13.50;89.70;;;15.65;63.19;99840.34;5024756;28;20234;-60
2023/03/24 01:07:55;;;;;;;5.10;3.10;;;13.50;89.90;;;15.59;63.45;99839.41;5032486;28;20195;-61
2023/03/24 01:10:25;;;;;;;6.33;3.00;;;13.40;90.00;;;15.63;63.23;99828.34;5033916;28;20198;-61
2023/03/24 01:12:55;;;;;;;4.87;3.27;;;13.40;90.00;;;15.71;63.29;99831.50;5033827;28;20186;-61
2023/03/24 01:15:26;;;;;;;6.33;3.60;;;13.50;90.00;;;15.74;63.19;99822.22;5033106;28;20605;-61
2023/03/24 01:17:56;;;;;;;4.80;3.20;;;13.50;90.10;;;15.67;63.34;99814.38;5034089;28;20214;-63
2023/03/24 01:20:24;;;;;;;4.73;2.83;;;13.40;90.10;;;15.62;63.68;99816.13;5034025;28;20732;-61
2023/03/24 01:22:51;;;;;;;4.83;3.13;;;13.40;90.20;;;15.62;64.09;99810.84;5035292;28;20256;-62
2023/03/24 01:25:22;;;;;;;7.13;3.60;;;13.40;90.50;;;15.67;63.77;99801.13;5036997;28;20257;-61
2023/03/24 01:27:51;;;;;;;5.87;3.30;;;13.40;90.30;;;15.62;63.87;99801.00;5037039;28;20179;-60
2023/03/24 01:30:22;;;;;;;7.20;3.63;;;13.40;90.40;;;15.62;63.80;99795.69;5037236;28;20201;-61
2023/03/24 01:32:50;;;;;;;4.73;2.93;;;13.40;90.40;;;15.61;64.10;99799.41;5036654;28;20183;-61
2023/03/24 01:35:21;;;;;;;7.47;3.70;;;13.40;90.50;;;15.53;64.39;99786.47;5013179;28;20219;-61
2023/03/24 01:37:48;;;;;;;5.30;3.40;;;13.40;90.60;;;15.48;64.78;99786.34;5017255;28;20204;-62
2023/03/24 01:40:19;;;;;;;8.13;3.00;;;13.40;90.70;;;15.46;64.90;99777.81;5026350;28;20553;-60
2023/03/24 01:42:46;;;;;;;5.17;3.73;;;13.30;90.80;;;15.44;65.29;99788.66;5047277;28;20214;-62
2023/03/24 01:45:55;;;;;;;9.00;3.23;;;13.30;90.90;;;15.40;65.21;99770.78;5043777;28;20749;-60
2023/03/24 01:48:29;;;;;;;4.13;3.47;;;13.40;91.00;;;15.40;65.37;99760.94;5056760;28;20186;-61
2023/03/24 01:51:02;;;;;;;7.13;3.20;;;13.40;91.00;;;15.41;65.52;99756.44;5043517;28;20212;-63
2023/03/24 01:53:33;;;;;;;5.13;3.50;;;13.40;91.20;;;15.47;65.68;99755.59;5036467;28;20194;-63
2023/03/24 01:56:02;;;;;;;3.90;3.17;;;13.40;91.10;;;15.52;65.35;99739.78;5036323;28;20659;-61
2023/03/24 01:58:34;;;;;;;3.37;2.93;;;13.40;91.20;;;15.51;65.58;99746.13;5019043;28;20249;-61
2023/03/24 02:01:03;;;;;;;6.50;3.47;;;13.40;91.30;;;15.56;65.66;99743.59;5036765;28;20597;-60
2023/03/24 02:03:35;;;;;;;4.43;3.20;;;13.40;91.40;;;15.49;65.74;99733.09;5035749;28;20258;-60
2023/03/24 02:06:05;;;;;;;4.43;3.10;;;13.40;91.40;;;15.46;65.79;99735.38;5035005;28;20195;-62
2023/03/24 02:08:40;;;;;;;5.70;3.13;;;13.40;91.50;;;15.53;65.58;99722.81;5036186;28;20182;-61
2023/03/24 02:11:08;;;;;;;4.27;3.40;;;13.40;91.50;;;15.58;65.61;99720.28;5037029;28;20194;-61
2023/03/24 02:13:35;;;;;;;6.93;3.33;;;13.40;91.50;;;15.50;65.87;99712.66;5026329;28;20265;-62
2023/03/24 02:16:22;;;;;;;3.40;2.90;;;13.40;91.60;;;15.58;65.66;99699.06;5036945;28;20205;-61
2023/03/24 02:19:13;;;;;;;4.17;3.13;;;13.40;91.60;;;15.64;65.51;99708.75;5036676;28;20198;-61
2023/03/24 02:22:25;;;;;;;3.70;3.37;;;13.40;91.60;;;15.55;66.08;99704.81;5036074;28;20199;-61
2023/03/24 02:25:45;;;;;;;4.40;3.13;;;13.40;91.80;;;15.55;66.18;99695.03;5007615;28;20234;-62
2023/03/24 02:28:30;;;;;;;4.00;3.07;;;13.40;91.80;;;15.60;65.96;99686.38;5023757;28;20203;-60
2023/03/24 02:31:55;;;;;;;4.00;3.43;;;13.40;91.70;;;15.58;66.08;99677.84;5035866;28;20187;-60
2023/03/24 02:35:14;;;;;;;6.33;3.27;;;13.40;91.80;;;15.64;65.94;99676.13;4999122;28;20230;-58
2023/03/24 02:38:15;;;;;;;3.53;3.20;;;13.50;91.80;;;15.64;65.95;99665.50;5049958;28;20220;-60
2023/03/24 02:40:55;;;;;;;4.07;3.43;;;13.50;91.80;;;15.71;65.99;99653.72;5056006;28;20535;-62
2023/03/24 02:43:41;;;;;;;4.57;3.53;;;13.50;91.90;;;15.68;65.79;99656.03;5042202;28;20268;-62
2023/03/24 02:46:20;;;;;;;4.67;3.33;;;13.50;91.90;;;15.69;66.24;99649.69;5045501;28;20659;-63
2023/03/24 02:49:06;;;;;;;5.07;3.20;;;13.50;92.00;;;15.71;66.26;99643.13;5035834;28;20280;-63
2023/03/24 02:51:42;;;;;;;4.53;3.47;;;13.50;92.00;;;15.81;65.97;99639.84;5036244;28;20217;-60
2023/03/24 02:54:16;;;;;;;5.73;3.70;;;13.50;91.90;;;15.85;65.83;99625.06;5050125;28;20622;-62
2023/03/24 02:56:53;;;;;;;3.43;3.13;;;13.60;92.00;;;15.82;65.96;99626.34;4999022;28;20679;-62
2023/03/24 02:59:30;;;;;;;4.20;3.40;;;13.60;92.00;;;15.87;65.64;99625.63;4998774;28;20222;-62
2023/03/24 03:02:05;;;;;;;5.13;3.53;;;13.60;92.00;;;15.91;65.81;99618.81;5017429;28;20186;-61
2023/03/24 03:04:40;;;;;;;4.13;3.23;;;13.60;92.00;;;15.97;65.57;99610.72;5035537;28;20229;-62
2023/03/24 03:07:10;;;;;;;3.53;3.20;;;13.70;92.00;;;16.05;65.63;99607.66;5030943;28;20225;-63
2023/03/24 03:09:46;;;;;;;4.27;3.00;;;13.70;91.90;;;16.10;65.14;99607.75;5035799;28;20202;-62
2023/03/24 03:12:18;;;;;;;5.43;3.53;;;13.70;91.90;;;16.06;65.57;99595.22;5035029;28;20190;-61
2023/03/24 03:14:50;;;;;;;4.00;2.90;;;13.70;91.90;;;16.07;65.64;99597.63;5035566;28;20215;-60
2023/03/24 03:17:22;;;;;;;3.30;3.00;;;13.80;91.90;;;16.13;65.21;99588.72;5035529;28;20206;-62
2023/03/24 03:19:55;;;;;;;4.17;3.30;;;13.80;91.80;;;16.21;64.88;99590.97;5033977;28;20607;-62
2023/03/24 03:22:27;;;;;;;4.57;3.70;;;13.80;91.80;;;16.15;65.12;99588.47;5031436;28;20179;-63
2023/03/24 03:25:00;;;;;;;4.03;2.83;;;13.80;91.80;;;16.21;65.28;99577.69;5016403;28;20575;-61
2023/03/24 03:27:37;;;;;;;4.27;2.93;;;13.90;91.80;;;16.24;64.95;99571.91;5024440;28;20550;-61
2023/03/24 03:30:14;;;;;;;6.27;3.70;;;13.90;91.80;;;16.21;65.58;99572.38;5021247;28;20256;-60
2023/03/24 03:32:53;;;;;;;3.90;3.60;;;13.90;91.80;;;16.10;65.68;99559.97;5021872;28;20252;-61
2023/03/24 03:35:28;;;;;;;3.43;3.13;;;13.90;91.90;;;16.20;65.97;99569.97;5038337;28;20263;-62
2023/03/24 03:38:08;;;;;;;4.23;3.40;;;14.00;91.90;;;16.31;65.61;99560.34;5017266;28;20186;-62
2023/03/24 03:40:41;;;;;;;3.80;3.47;;;14.00;91.80;;;16.33;65.56;99552.94;5034876;28;20179;-61
2023/03/24 03:43:10;;;;;;;3.57;3.27;;;14.00;91.90;;;16.27;66.06;99554.69;5034920;28;20670;-61
2023/03/24 03:45:37;;;;;;;4.03;3.50;;;14.00;92.00;;;16.30;65.76;99559.53;5045795;28;20226;-61
2023/03/24 03:48:05;;;;;;;3.40;3.20;;;14.00;92.00;;;16.34;65.65;99538.59;5055178;28;20186;-60
2023/03/24 03:50:33;;;;;;;4.40;3.43;;;14.10;92.00;;;16.33;65.72;99542.31;5026754;28;20205;-61
2023/03/24 03:53:00;;;;;;;5.57;3.53;;;14.00;92.10;;;16.33;65.63;99543.09;5034782;28;20190;-60
2023/03/24 03:55:27;;;;;;;3.37;3.07;;;14.10;92.10;;;16.33;65.83;99542.31;5034464;28;20229;-60
2023/03/24 03:57:54;;;;;;;3.63;2.90;;;14.10;92.10;;;16.37;65.96;99536.28;5035019;28;20187;-61
2023/03/24 04:00:23;;;;;;;3.90;3.53;;;14.10;92.00;;;16.25;65.94;99536.34;5033719;28;20215;-61
2023/03/24 04:03:26;;;;;;;3.53;3.17;;;14.00;92.00;;;16.20;65.87;99524.84;5034323;28;20182;-61
2023/03/24 04:06:00;;;;;;;3.30;3.00;;;14.10;92.00;;;16.33;65.86;99523.72;5034984;28;20638;-61
2023/03/24 04:08:44;;;;;;;3.63;3.20;;;14.10;92.00;;;16.26;66.02;99524.66;5016849;28;20225;-60
2023/03/24 04:11:45;;;;;;;3.80;3.50;;;14.10;92.10;;;16.27;66.10;99526.28;5036248;28;20681;-60
2023/03/24 04:14:37;;;;;;;3.77;3.30;;;14.10;92.00;;;16.20;66.52;99527.50;5033512;28;20217;-60
2023/03/24 04:17:18;;;;;;;3.57;3.27;;;14.10;92.10;;;16.23;66.60;99527.00;5033783;28;20179;-61
2023/03/24 04:20:05;;;;;;;4.63;3.47;;;14.10;92.40;;;16.21;66.45;99524.59;5034100;28;20206;-62
2023/03/24 04:22:52;;;;;;;4.37;3.27;;;14.10;92.20;;;16.24;66.41;99524.09;5033367;28;20197;-61
2023/03/24 04:25:34;;;;;;;3.77;3.47;;;14.10;92.20;;;16.35;66.28;99513.66;5033400;28;20295;-60
2023/03/24 04:28:13;;;;;;;3.47;3.10;;;14.10;92.10;;;16.43;66.01;99522.00;5033802;28;20198;-61
2023/03/24 04:30:45;;;;;;;3.57;3.27;;;14.20;92.10;;;16.51;65.53;99518.16;5052767;28;20681;-61
2023/03/24 04:33:23;;;;;;;3.87;3.57;;;14.20;92.10;;;16.54;65.34;99507.06;5038983;28;20194;-60
2023/03/24 04:36:00;;;;;;;3.90;3.50;;;14.20;92.20;;;16.51;65.51;99505.72;5033851;28;20190;-61
2023/03/24 04:38:31;;;;;;;3.23;3.00;;;14.30;92.20;;;16.48;65.75;99508.81;5034623;28;20571;-62
2023/03/24 04:41:00;;;;;;;3.13;2.93;;;14.30;92.10;;;16.47;66.11;99503.75;5016885;28;20205;-60
2023/03/24 04:43:35;;;;;;;3.73;3.40;;;14.20;92.10;;;16.45;66.03;99505.84;5032947;28;20204;-59
2023/03/24 04:46:04;;;;;;;4.40;3.80;;;14.20;92.20;;;16.43;66.26;99510.56;5048140;28;20194;-62
2023/03/24 04:48:32;;;;;;;3.67;3.37;;;14.20;92.10;;;16.47;65.92;99503.75;5053787;28;20213;-61
2023/03/24 04:51:02;;;;;;;4.13;3.83;;;14.30;92.10;;;16.52;66.05;99501.19;5046942;28;20187;-61
2023/03/24 04:53:29;;;;;;;5.20;3.20;;;14.30;92.10;;;16.53;65.85;99500.13;5033303;28;20201;-61
2023/03/24 04:56:23;;;;;;;3.93;3.20;;;14.30;92.10;;;16.49;66.11;99494.50;5033516;28;20568;-61
2023/03/24 04:58:50;;;;;;;3.47;3.17;;;14.30;92.10;;;16.51;66.04;99496.91;5037061;28;20269;-59
2023/03/24 05:01:20;;;;;;;2.80;2.60;;;14.40;92.10;;;16.53;66.07;99492.16;5036941;28;20241;-63
2023/03/24 05:03:48;;;;;;;3.43;3.13;;;14.40;92.10;;;16.60;65.79;99484.84;5030833;28;20222;-61
2023/03/24 05:06:16;;;;;;;3.17;2.93;;;14.40;92.10;;;16.63;66.04;99484.34;5021777;28;20226;-61
2023/03/24 05:08:43;;;;;;;3.67;3.37;;;14.40;92.10;;;16.64;65.95;99478.00;5017619;28;20192;-61
2023/03/24 05:11:10;;;;;;;3.90;3.50;;;14.40;92.20;;;16.62;66.10;99478.22;5024410;28;20693;-61
2023/03/24 05:13:37;;;;;;;4.00;3.63;;;14.40;92.20;;;16.61;66.43;99475.81;5036545;28;20301;-62
2023/03/24 05:16:05;;;;;;;3.80;3.50;;;14.40;92.30;;;16.63;66.19;99485.16;5037189;28;20195;-61
2023/03/24 05:18:32;;;;;;;3.60;3.27;;;14.40;92.40;;;16.67;66.45;99477.50;5037295;28;20316;-61
2023/03/24 05:21:00;;;;;;;3.97;3.60;;;14.40;92.50;;;16.66;66.32;99478.56;5036736;28;20703;-60
2023/03/24 05:23:27;;;;;;;2.80;2.60;;;14.40;92.50;;;16.71;65.94;99490.03;5036873;28;20198;-61
2023/03/24 05:25:54;;;;;;;3.57;3.37;;;14.40;92.50;;;16.75;65.77;99493.84;5047367;28;20206;-61
2023/03/24 05:28:22;;;;;;;3.27;3.00;;;14.40;92.50;;;16.82;65.63;99498.97;5056494;28;20190;-62
2023/03/24 05:30:49;;;;;;;3.73;3.43;;;14.40;92.60;;;16.73;66.26;99501.25;5052572;28;20217;-61
2023/03/24 05:33:16;;;;;;;3.50;3.20;;;14.30;92.60;;;16.70;66.48;99496.41;5023526;28;20194;-61
2023/03/24 05:35:43;;;;;;;3.10;2.80;;;14.40;92.70;;;16.55;67.07;99498.84;5035563;28;20252;-62
2023/03/24 05:38:12;;;;;;;3.00;2.80;;;14.30;92.70;;;16.55;67.19;99498.84;5036728;28;20675;-61
2023/03/24 05:40:40;;;;;;;3.13;2.93;;;14.30;92.60;;;16.66;66.81;99494.50;5036385;28;20225;-60
2023/03/24 05:43:07;;;;;;;3.43;3.13;;;14.40;92.70;;;16.63;66.64;99503.75;5036719;28;20225;-62
2023/03/24 05:45:34;;;;;;;3.10;2.90;;;14.40;92.70;;;16.60;66.58;99506.09;5037218;28;20218;-61
2023/03/24 05:48:01;;;;;;;3.40;3.13;;;14.40;92.70;;;16.69;66.80;99512.59;5036366;28;20240;-61
2023/03/24 05:50:28;;;;;;;3.87;2.90;;;14.40;92.60;;;16.76;66.22;99499.94;5035898;28;20195;-61
2023/03/24 05:52:56;;;;;;;3.43;2.70;;;14.50;92.70;;;16.90;65.95;99495.91;5036519;28;20199;-61
2023/03/24 05:55:24;;;;;;;2.70;2.50;;;14.50;92.60;;;16.89;65.63;99505.72;5035921;28;20315;-60
2023/03/24 05:57:52;;;;;;;3.33;3.03;;;14.50;92.60;;;16.89;65.55;99515.53;5036061;28;20647;-62
2023/03/24 06:00:20;;;;;;;4.03;2.97;;;14.50;92.50;;;16.94;65.58;99534.22;5018576;28;20218;-62
2023/03/24 06:02:47;;;;;;;2.73;2.53;;;14.50;92.40;;;16.93;65.25;99535.25;5035864;28;20198;-61
2023/03/24 06:05:14;;;;;;;2.60;2.40;;;14.50;92.20;;;17.02;65.19;99539.09;5035717;28;20766;-62
2023/03/24 06:07:41;;;;;;;2.50;2.40;;;14.50;92.00;;;17.10;64.61;99559.94;5035177;28;20549;-62
2023/03/24 06:10:10;;;;;;;2.77;2.40;;;14.60;92.10;;;17.18;64.24;99583.47;5036479;28;20682;-62
2023/03/24 06:12:39;;;;;;;2.40;2.20;;;14.60;91.90;;;17.17;63.61;99589.84;5035853;28;20202;-64
2023/03/24 06:15:09;;;;;;;2.30;2.10;;;14.60;91.50;;;17.17;63.49;99576.53;5019345;28;20583;-62
2023/03/24 06:17:36;;;;;;;2.80;2.17;;;14.60;91.30;;;17.20;63.23;99576.06;5016463;28;20198;-60
2023/03/24 06:20:10;;;;;;;1.70;1.60;;;14.70;91.10;;;17.24;62.86;99576.34;5021216;28;20694;-63
2023/03/24 06:22:37;;;;;;;1.83;1.70;;;14.70;91.00;;;17.28;62.53;99591.56;5049211;28;20285;-62
2023/03/24 06:25:08;;;;;;;1.73;1.57;;;14.70;90.80;;;17.30;61.71;99602.78;5055335;28;20222;-61
2023/03/24 06:27:35;;;;;;;1.67;1.57;;;14.70;90.20;;;17.31;61.26;99607.03;5038087;28;20210;-63
2023/03/24 06:30:07;;;;;;;4.50;1.73;;;14.60;89.80;;;17.32;60.29;99624.63;5045097;28;20195;-63
2023/03/24 06:32:34;;;;;;;3.40;1.20;;;14.60;88.20;;;17.36;59.90;99623.06;5036475;28;20183;-62
2023/03/24 06:35:02;;;;;;;3.20;1.67;;;14.60;88.00;;;17.36;58.78;99623.06;5035956;28;20237;-64
2023/03/24 06:37:29;;;;;;;2.10;1.27;;;14.60;86.60;;;17.37;58.58;99630.00;5037079;28;20202;-64
2023/03/24 06:39:56;;;;;;;2.20;1.17;;;14.60;86.20;;;17.39;57.83;99641.22;5018508;28;20221;-62
2023/03/24 06:42:23;;;;;;;3.60;2.20;;;14.60;85.60;;;17.40;57.15;99645.47;5036402;28;20187;-61
2023/03/24 06:44:50;;;;;;;2.63;1.60;;;14.60;84.70;;;17.39;56.99;99657.16;5034676;28;20219;-64
2023/03/24 06:47:18;;;;;;;4.47;1.80;;;14.60;84.10;;;17.40;56.79;99660.66;5016764;28;20203;-63
2023/03/24 06:49:45;;;;;;;2.53;1.23;;;14.60;84.20;;;17.43;56.66;99682.22;5016043;28;20194;-62
2023/03/24 06:52:12;;;;;;;2.17;1.33;;;14.60;84.00;;;17.47;56.15;99667.38;5026444;28;20218;-61
2023/03/24 06:54:39;;;;;;;2.37;1.50;;;14.60;83.40;;;17.50;56.19;99682.84;5034112;28;20732;-61
2023/03/24 06:57:08;;;;;;;2.23;1.23;;;14.70;83.00;;;17.51;55.67;99681.84;5035417;28;20195;-63
2023/03/24 06:59:35;;;;;;;4.33;1.60;;;14.70;83.00;;;17.40;54.58;99687.25;5035798;28;20621;-60
2023/03/24 07:02:02;;;;;;;3.00;1.33;;;14.70;82.10;;;17.38;54.64;99691.97;5034973;28;20214;-62
2023/03/24 07:04:35;;;;;;;3.00;1.50;;;14.70;80.90;;;17.35;54.07;99706.56;5017496;28;20225;-62
2023/03/24 07:07:02;;;;;;;3.13;1.37;;;14.60;80.00;;;17.29;53.90;99704.91;5017005;28;20183;-64
2023/03/24 07:09:49;;;;;;;5.30;1.50;;;14.60;79.80;;;17.20;54.07;99702.91;5035218;28;20260;-61
2023/03/24 07:12:16;;;;;;;2.87;1.50;;;14.50;79.00;;;17.17;53.17;99714.81;5034347;28;20205;-63
2023/03/24 07:14:43;;;;;;;4.07;1.37;;;14.50;78.50;;;17.29;53.79;99726.19;5036136;28;20226;-61
2023/03/24 07:17:14;;;;;;;2.83;1.40;;;14.50;79.60;;;17.66;53.58;99723.84;5036430;28;20195;-61
2023/03/24 07:19:47;;;;;;;2.43;1.50;;;14.60;80.40;;;18.27;53.40;99722.72;5025876;28;20685;-63
2023/03/24 07:22:14;;;;;;;3.97;1.47;;;14.90;81.20;;;18.79;51.28;99745.16;5033948;28;20691;-63
2023/03/24 07:24:41;;;;;;;4.47;1.80;;;15.20;78.70;;;19.09;49.37;99738.50;5034441;28;20226;-61
2023/03/24 07:27:08;;;;;;;5.30;1.60;;;15.60;76.70;;;19.25;48.58;99759.72;5034005;28;20202;-61
2023/03/24 07:29:35;;;;;;;4.03;1.80;;;15.80;75.10;;;19.31;47.87;99736.50;5034252;28;20190;-61
2023/03/24 07:32:02;;;;;;;6.00;1.77;;;16.00;73.50;;;19.49;48.01;99734.25;5034566;28;20535;-61
2023/03/24 07:34:30;;;;;;;3.77;1.60;;;16.20;73.80;;;19.74;47.65;99751.50;5034047;28;20214;-62
2023/03/24 07:36:59;;;;;;;2.53;1.40;;;16.40;73.20;;;19.95;47.24;99758.56;5014241;28;20687;-61
2023/03/24 07:39:28;;;;;;;2.57;1.57;;;16.60;73.40;;;20.13;46.78;99766.16;5014530;28;20282;-61
2023/03/24 07:41:55;;;;;;;4.13;1.93;;;16.70;71.70;;;20.35;45.87;99763.34;5030207;28;20211;-62
2023/03/24 07:44:22;;;;;;;3.60;1.67;;;16.90;70.80;;;20.34;45.50;99762.53;5034297;28;20216;-62
2023/03/24 07:46:49;;;;;;;2.70;1.80;;;17.00;69.40;;;20.08;45.15;99758.91;5054770;28;20205;-58
2023/03/24 07:49:16;;;;;;;3.70;1.50;;;17.10;69.00;;;20.15;45.82;99770.16;5054106;28;20190;-62
2023/03/24 07:51:46;;;;;;;4.23;1.80;;;17.00;70.00;;;20.49;45.05;99780.47;5038957;28;20190;-60
2023/03/24 07:54:14;;;;;;;5.33;2.10;;;17.10;69.60;;;20.61;43.95;99759.66;5033545;28;20229;-62
2023/03/24 07:56:41;;;;;;;4.40;2.60;;;17.20;68.20;;;20.40;43.97;99785.50;5016475;28;20542;-62
2023/03/24 07:59:11;;;;;;;5.43;2.13;;;17.20;67.00;;;20.02;43.86;99796.53;5033430;28;20198;-61
2023/03/24 08:01:38;;;;;;;4.20;1.63;;;17.10;65.60;;;19.61;44.15;99800.84;5034094;28;20190;-60
2023/03/24 08:04:05;;;;;;;4.37;1.80;;;16.80;65.50;;;19.29;44.60;99803.50;5032924;28;20223;-62
2023/03/24 08:06:33;;;;;;;6.03;2.23;;;16.60;65.90;;;19.09;45.19;99807.84;5019758;28;20201;-62
2023/03/24 08:09:00;;;;;;;3.93;1.83;;;16.40;66.70;;;18.96;45.75;99810.91;5035554;28;20198;-61
2023/03/24 08:11:29;;;;;;;6.30;2.20;;;16.20;67.70;;;18.96;46.15;99816.25;5035076;28;20205;-61
2023/03/24 08:13:57;;;;;;;6.57;2.27;;;16.10;68.80;;;18.91;46.17;99812.47;5011042;28;20213;-63
2023/03/24 08:16:24;;;;;;;5.17;2.43;;;16.10;69.10;;;18.86;46.77;99815.09;5045957;28;20240;-62
2023/03/24 08:18:51;;;;;;;5.07;2.13;;;16.00;69.70;;;18.87;46.79;99821.25;5035118;28;20199;-63
2023/03/24 08:21:18;;;;;;;6.63;1.80;;;15.90;69.80;;;18.84;46.91;99819.06;5035296;28;20613;-62
2023/03/24 08:23:45;;;;;;;6.40;2.40;;;15.90;70.20;;;18.80;46.64;99832.09;5034725;28;20280;-61
2023/03/24 08:26:14;;;;;;;4.23;2.27;;;15.90;70.20;;;18.71;47.00;99814.91;5033951;28;20233;-62
2023/03/24 08:28:42;;;;;;;3.83;2.00;;;15.80;69.90;;;18.62;47.01;99824.44;5035104;28;20348;-61
2023/03/24 08:31:09;;;;;;;3.43;1.77;;;15.80;70.00;;;18.66;47.29;99822.84;5036178;28;20198;-62
2023/03/24 08:33:36;;;;;;;5.83;1.93;;;15.80;70.60;;;18.72;47.17;99843.22;5039334;28;20752;-60
2023/03/24 08:36:05;;;;;;;4.57;2.10;;;15.80;70.60;;;18.67;46.65;99843.16;5031147;28;20229;-63
2023/03/24 08:38:32;;;;;;;4.93;2.10;;;15.70;69.80;;;18.67;46.79;99837.00;5047473;28;20239;-60
2023/03/24 08:41:05;;;;;;;4.77;1.80;;;15.80;70.40;;;18.71;46.83;99843.44;5039038;28;20218;-62
2023/03/24 08:43:34;;;;;;;4.83;2.23;;;15.80;70.40;;;18.72;46.55;99839.72;5039402;28;20664;-61
2023/03/24 08:46:07;;;;;;;6.17;1.80;;;15.80;70.20;;;18.80;46.59;99841.97;5036034;28;20761;-60
2023/03/24 08:48:39;;;;;;;6.77;1.90;;;15.80;70.40;;;19.11;46.78;99843.88;5060265;28;20185;-62
2023/03/24 08:51:12;;;;;;;4.47;2.27;;;15.90;70.60;;;19.50;46.09;99863.22;5028715;28;20586;-61
2023/03/24 08:53:40;;;;;;;5.00;2.27;;;16.00;70.70;;;19.58;45.40;99870.78;5004745;28;20210;-61
2023/03/24 08:56:09;;;;;;;7.20;2.20;;;16.20;69.40;;;19.50;44.83;99873.88;5039417;28;20198;-62
2023/03/24 08:58:36;;;;;;;4.73;2.20;;;16.30;67.90;;;19.36;44.14;99875.38;5018269;28;20194;-63
2023/03/24 09:01:06;;;;;;;5.80;2.10;;;16.30;66.60;;;19.25;44.44;99870.97;5039772;28;20242;-60
2023/03/24 09:03:34;;;;;;;6.60;2.50;;;16.30;66.60;;;19.14;44.51;99885.25;5020093;28;20195;-63
2023/03/24 09:06:02;;;;;;;6.03;2.07;;;16.20;67.10;;;19.00;43.54;99876.03;5026916;28;20205;-61
2023/03/24 09:08:29;;;;;;;10.87;2.00;;;16.20;64.60;;;18.93;43.46;99873.56;5015645;28;20213;-62
2023/03/24 09:10:56;;;;;;;4.07;1.87;;;16.10;63.90;;;19.06;43.24;99909.72;5034186;28;20217;-63
2023/03/24 09:13:23;;;;;;;6.23;2.10;;;16.00;63.80;;;19.16;42.93;99886.59;5036216;28;20190;-63
2023/03/24 09:15:57;;;;;;;6.50;2.20;;;16.10;64.20;;;19.27;42.67;99884.88;5020164;28;20214;-62
2023/03/24 09:18:26;;;;;;;6.10;2.20;;;16.20;64.20;;;19.35;42.92;99881.75;5012477;28;20209;-63
2023/03/24 09:20:54;;;;;;;5.63;2.00;;;16.20;64.20;;;19.44;43.14;99885.59;5028587;28;20234;-63
2023/03/24 09:23:21;;;;;;;6.47;2.40;;;16.30;64.70;;;19.53;42.72;99878.72;5010552;28;20292;-61
2023/03/24 09:25:49;;;;;;;7.93;5.90;;;16.40;64.40;;;19.56;42.62;99892.38;5029308;28;20224;-61
2023/03/24 09:28:17;;;;;;;7.50;2.67;;;16.40;64.10;;;19.50;42.36;99892.56;5028901;28;20202;-65
2023/03/24 09:30:44;;;;;;;6.07;2.50;;;16.40;62.90;;;19.34;42.21;99883.59;5028626;28;20186;-61
2023/03/24 09:33:11;;;;;;;5.90;1.97;;;16.40;62.60;;;19.40;42.22;99889.81;5013421;28;20210;-64
2023/03/24 09:35:40;;;;;;;6.60;2.00;;;16.40;63.00;;;20.02;41.77;99887.38;5020139;28;20233;-63
2023/03/24 09:38:10;;;;;;;7.23;2.57;;;16.50;63.60;;;20.76;41.39;99888.88;5028972;28;20306;-61
2023/03/24 09:40:39;;;;;;;6.30;2.23;;;16.80;64.20;;;21.17;40.68;99881.00;5028680;28;20229;-61
2023/03/24 09:43:17;;;;;;;6.77;2.80;;;17.20;63.40;;;21.17;39.85;99887.16;5026908;28;20219;-60
2023/03/24 09:45:50;;;;;;;2.87;1.80;;;17.40;61.20;;;20.98;39.41;99885.22;5028932;28;20287;-59
2023/03/24 09:48:34;;;;;;;9.20;2.43;;;17.60;60.40;;;20.84;39.15;99898.28;5033539;28;20805;-62
2023/03/24 09:51:08;;;;;;;6.07;2.33;;;17.60;60.10;;;21.35;39.86;99891.19;5026475;28;20194;-61
2023/03/24 09:53:45;;;;;;;5.73;2.07;;;17.70;60.20;;;22.68;38.48;99886.25;5028659;28;20218;-62
2023/03/24 09:56:16;;;;;;;5.33;2.03;;;18.20;61.20;;;23.91;35.94;99896.78;5027360;28;20209;-61
2023/03/24 09:58:51;;;;;;;5.47;2.27;;;18.80;59.90;;;25.01;34.69;99889.38;5025647;28;20594;-61
2023/03/24 10:01:20;;;;;;;5.80;2.73;;;19.50;58.10;;;26.04;32.82;99882.94;5026862;28;20234;-63
2023/03/24 10:03:47;;;;;;;7.30;2.10;;;20.20;56.40;;;26.86;31.70;99892.69;5030723;28;20348;-63
2023/03/24 10:06:24;;;;;;;7.80;2.40;;;21.00;54.80;;;27.14;29.33;99892.66;5016114;28;20195;-62
2023/03/24 10:09:12;;;;;;;7.43;2.40;;;21.60;50.20;;;26.64;29.85;99900.72;5016658;28;20238;-62
2023/03/24 10:11:49;;;;;;;6.60;2.50;;;22.00;48.60;;;25.79;29.80;99900.38;5016553;28;20226;-63
2023/03/24 10:14:41;;;;;;;5.10;2.70;;;21.80;46.60;;;24.75;30.33;99912.31;5032279;28;20218;-61
2023/03/24 10:17:24;;;;;;;6.30;2.27;;;21.50;46.20;;;24.15;32.04;99903.06;5036618;28;20203;-61
2023/03/24 10:19:59;;;;;;;7.00;2.80;;;21.00;46.90;;;23.73;32.39;99906.34;5036017;28;20224;-70
2023/03/24 10:22:37;;;;;;;7.83;2.90;;;20.70;47.20;;;23.23;32.95;99918.22;5036418;28;20213;-63
2023/03/24 10:25:18;;;;;;;8.20;3.07;;;20.40;47.90;;;22.63;33.91;99935.38;5044488;28;20559;-62
2023/03/24 10:27:51;;;;;;;8.43;2.53;;;19.90;48.80;;;22.16;34.95;99924.19;5021272;28;20695;-61
2023/03/24 10:30:22;;;;;;;5.63;2.60;;;19.60;50.20;;;22.04;35.77;99932.53;5002506;28;20198;-63
2023/03/24 10:32:51;;;;;;;6.70;2.53;;;19.30;51.20;;;22.06;35.24;99922.34;5027151;28;20222;-64
2023/03/24 10:35:27;;;;;;;8.27;3.07;;;19.10;51.70;;;22.61;35.47;99926.00;5028708;28;20309;-65
2023/03/24 10:38:00;;;;;;;7.30;2.70;;;19.10;52.70;;;23.30;34.76;99923.25;5015844;28;20190;-62
2023/03/24 10:40:32;;;;;;;5.67;2.60;;;19.30;52.70;;;22.96;33.25;99919.72;5031014;28;20221;-64